sensor_id;sensor_type;location;lat;lon;timestamp;temperature;humidity
6662;DHT22;3367;48.714;8.994;2022-09-16T00:01:20;12.80;1.00
6662;DHT22;3367;48.714;8.994;2022-09-16T00:03:47;12.80;1.00
6662;DHT22;3367;48.714;8.994;2022-09-16T00:06:17;12.90;1.00
6662;DHT22;3367;48.714;8.994;2022-09-16T00:08:44;12.80;1.00
6662;DHT22;3367;48.714;8.994;2022-09-16T00:11:12;12.80;99.90
6662;DHT22;3367;48.714;8.994;2022-09-16T00:13:39;12.70;89.20
6662;DHT22;3367;48.714;8.994;2022-09-16T00:16:07;12.80;99.90
6662;DHT22;3367;48.714;8.994;2022-09-16T00:18:36;12.80;99.90
6662;DHT22;3367;48.714;8.994;2022-09-16T00:21:07;12.90;99.90
6662;DHT22;3367;48.714;8.994;2022-09-16T00:23:35;12.80;95.40
6662;DHT22;3367;48.714;8.994;2022-09-16T00:26:03;12.80;99.90
6662;DHT22;3367;48.714;8.994;2022-09-16T00:28:31;12.80;1.00
6662;DHT22;3367;48.714;8.994;2022-09-16T00:30:58;12.80;99.90
6662;DHT22;3367;48.714;8.994;2022-09-16T00:33:25;12.80;99.90
6662;DHT22;3367;48.714;8.994;2022-09-16T00:36:03;12.80;99.90
6662;DHT22;3367;48.714;8.994;2022-09-16T00:38:30;12.80;99.90
6662;DHT22;3367;48.714;8.994;2022-09-16T00:40:57;12.80;99.90
6662;DHT22;3367;48.714;8.994;2022-09-16T00:43:25;12.90;99.90
6662;DHT22;3367;48.714;8.994;2022-09-16T00:45:55;12.80;99.90
6662;DHT22;3367;48.714;8.994;2022-09-16T00:48:25;12.80;99.90
6662;DHT22;3367;48.714;8.994;2022-09-16T00:50:56;12.90;1.00
6662;DHT22;3367;48.714;8.994;2022-09-16T00:53:28;12.80;99.90
6662;DHT22;3367;48.714;8.994;2022-09-16T00:55:58;12.80;99.90
6662;DHT22;3367;48.714;8.994;2022-09-16T00:58:32;12.80;99.90
6662;DHT22;3367;48.714;8.994;2022-09-16T01:01:01;12.80;99.90
6662;DHT22;3367;48.714;8.994;2022-09-16T01:03:29;12.70;99.90
6662;DHT22;3367;48.714;8.994;2022-09-16T01:05:58;12.80;99.90
6662;DHT22;3367;48.714;8.994;2022-09-16T01:08:25;12.70;99.90
6662;DHT22;3367;48.714;8.994;2022-09-16T01:10:53;12.70;99.90
6662;DHT22;3367;48.714;8.994;2022-09-16T01:13:20;12.70;99.90
6662;DHT22;3367;48.714;8.994;2022-09-16T01:15:54;12.80;99.90
6662;DHT22;3367;48.714;8.994;2022-09-16T01:18:27;12.80;1.00
6662;DHT22;3367;48.714;8.994;2022-09-16T01:21:21;12.80;1.00
6662;DHT22;3367;48.714;8.994;2022-09-16T01:27:27;12.90;1.00
6662;DHT22;3367;48.714;8.994;2022-09-16T01:33:27;12.90;1.00
6662;DHT22;3367;48.714;8.994;2022-09-16T01:39:26;12.80;1.00
6662;DHT22;3367;48.714;8.994;2022-09-16T01:42:03;12.80;1.00
6662;DHT22;3367;48.714;8.994;2022-09-16T01:44:38;12.80;1.00
6662;DHT22;3367;48.714;8.994;2022-09-16T01:47:15;12.70;1.00
6662;DHT22;3367;48.714;8.994;2022-09-16T01:49:58;12.60;99.90
6662;DHT22;3367;48.714;8.994;2022-09-16T01:52:34;12.50;99.90
6662;DHT22;3367;48.714;8.994;2022-09-16T01:55:05;12.50;1.00
6662;DHT22;3367;48.714;8.994;2022-09-16T01:57:38;12.60;1.00
6662;DHT22;3367;48.714;8.994;2022-09-16T02:00:09;12.60;1.00
6662;DHT22;3367;48.714;8.994;2022-09-16T02:02:39;12.50;1.00
6662;DHT22;3367;48.714;8.994;2022-09-16T02:05:13;12.50;1.00
6662;DHT22;3367;48.714;8.994;2022-09-16T02:07:44;12.60;1.00
6662;DHT22;3367;48.714;8.994;2022-09-16T02:10:17;12.60;7.80
6662;DHT22;3367;48.714;8.994;2022-09-16T02:12:48;12.60;14.60
6662;DHT22;3367;48.714;8.994;2022-09-16T02:15:19;12.70;45.30
6662;DHT22;3367;48.714;8.994;2022-09-16T02:17:51;12.60;50.20
6662;DHT22;3367;48.714;8.994;2022-09-16T02:20:25;12.60;55.50
6662;DHT22;3367;48.714;8.994;2022-09-16T02:22:57;12.70;91.60
6662;DHT22;3367;48.714;8.994;2022-09-16T02:25:27;12.60;97.00
6662;DHT22;3367;48.714;8.994;2022-09-16T02:27:56;12.60;99.90
6662;DHT22;3367;48.714;8.994;2022-09-16T02:30:25;12.60;99.90
6662;DHT22;3367;48.714;8.994;2022-09-16T02:32:56;12.60;99.90
6662;DHT22;3367;48.714;8.994;2022-09-16T02:35:26;12.60;99.90
6662;DHT22;3367;48.714;8.994;2022-09-16T02:37:57;12.60;99.90
6662;DHT22;3367;48.714;8.994;2022-09-16T02:40:28;12.60;99.90
6662;DHT22;3367;48.714;8.994;2022-09-16T02:42:56;12.60;99.90
6662;DHT22;3367;48.714;8.994;2022-09-16T02:45:34;12.60;99.90
6662;DHT22;3367;48.714;8.994;2022-09-16T02:48:10;12.60;99.90
6662;DHT22;3367;48.714;8.994;2022-09-16T02:50:44;12.60;99.90
6662;DHT22;3367;48.714;8.994;2022-09-16T02:53:22;12.50;99.90
6662;DHT22;3367;48.714;8.994;2022-09-16T02:55:56;12.60;99.90
6662;DHT22;3367;48.714;8.994;2022-09-16T02:58:25;12.60;99.90
6662;DHT22;3367;48.714;8.994;2022-09-16T03:00:54;12.60;99.90
6662;DHT22;3367;48.714;8.994;2022-09-16T03:03:23;12.60;99.90
6662;DHT22;3367;48.714;8.994;2022-09-16T03:06:09;12.60;99.90
6662;DHT22;3367;48.714;8.994;2022-09-16T03:08:40;12.60;99.90
6662;DHT22;3367;48.714;8.994;2022-09-16T03:11:19;12.60;99.90
6662;DHT22;3367;48.714;8.994;2022-09-16T03:13:53;12.70;99.90
6662;DHT22;3367;48.714;8.994;2022-09-16T03:16:26;12.70;99.90
6662;DHT22;3367;48.714;8.994;2022-09-16T03:19:05;12.70;99.90
6662;DHT22;3367;48.714;8.994;2022-09-16T03:21:39;12.70;95.50
6662;DHT22;3367;48.714;8.994;2022-09-16T03:24:11;12.70;1.00
6662;DHT22;3367;48.714;8.994;2022-09-16T03:26:45;12.70;1.00
6662;DHT22;3367;48.714;8.994;2022-09-16T03:29:17;12.70;1.00
6662;DHT22;3367;48.714;8.994;2022-09-16T03:31:54;12.70;1.00
6662;DHT22;3367;48.714;8.994;2022-09-16T03:34:26;12.70;1.00
6662;DHT22;3367;48.714;8.994;2022-09-16T03:37:00;12.70;1.00
6662;DHT22;3367;48.714;8.994;2022-09-16T03:39:28;12.60;1.00
6662;DHT22;3367;48.714;8.994;2022-09-16T03:42:00;12.60;1.00
6662;DHT22;3367;48.714;8.994;2022-09-16T03:44:32;12.70;1.00
6662;DHT22;3367;48.714;8.994;2022-09-16T03:46:59;12.80;18.80
6662;DHT22;3367;48.714;8.994;2022-09-16T03:49:25;12.80;99.90
6662;DHT22;3367;48.714;8.994;2022-09-16T03:51:52;12.80;99.90
6662;DHT22;3367;48.714;8.994;2022-09-16T03:54:21;12.80;99.90
6662;DHT22;3367;48.714;8.994;2022-09-16T03:56:48;12.70;1.00
6662;DHT22;3367;48.714;8.994;2022-09-16T03:59:15;12.80;1.00
6662;DHT22;3367;48.714;8.994;2022-09-16T04:01:42;12.70;1.00
6662;DHT22;3367;48.714;8.994;2022-09-16T04:04:09;12.60;99.90
6662;DHT22;3367;48.714;8.994;2022-09-16T04:06:36;12.60;99.90
6662;DHT22;3367;48.714;8.994;2022-09-16T04:09:04;12.60;99.90
6662;DHT22;3367;48.714;8.994;2022-09-16T04:11:34;12.60;99.90
6662;DHT22;3367;48.714;8.994;2022-09-16T04:14:00;12.70;1.00
6662;DHT22;3367;48.714;8.994;2022-09-16T04:16:27;12.70;99.90
6662;DHT22;3367;48.714;8.994;2022-09-16T04:18:54;12.70;1.00
6662;DHT22;3367;48.714;8.994;2022-09-16T04:21:20;12.80;1.00
6662;DHT22;3367;48.714;8.994;2022-09-16T04:27:00;12.90;1.00
6662;DHT22;3367;48.714;8.994;2022-09-16T04:29:27;12.80;1.00
6662;DHT22;3367;48.714;8.994;2022-09-16T04:31:57;12.80;1.00
6662;DHT22;3367;48.714;8.994;2022-09-16T04:34:24;12.80;1.00
6662;DHT22;3367;48.714;8.994;2022-09-16T04:36:51;12.80;1.00
6662;DHT22;3367;48.714;8.994;2022-09-16T04:39:18;12.90;1.00
6662;DHT22;3367;48.714;8.994;2022-09-16T04:41:45;12.90;99.90
6662;DHT22;3367;48.714;8.994;2022-09-16T04:44:13;12.90;68.60
6662;DHT22;3367;48.714;8.994;2022-09-16T04:46:40;12.70;1.00
6662;DHT22;3367;48.714;8.994;2022-09-16T04:49:07;12.70;1.00
6662;DHT22;3367;48.714;8.994;2022-09-16T04:51:33;12.80;1.00
6662;DHT22;3367;48.714;8.994;2022-09-16T04:54:00;12.70;99.90
6662;DHT22;3367;48.714;8.994;2022-09-16T04:56:29;12.60;99.90
6662;DHT22;3367;48.714;8.994;2022-09-16T04:58:59;12.70;99.90
6662;DHT22;3367;48.714;8.994;2022-09-16T05:01:29;12.60;99.90
6662;DHT22;3367;48.714;8.994;2022-09-16T05:03:58;12.50;99.90
6662;DHT22;3367;48.714;8.994;2022-09-16T05:06:26;12.50;99.90
6662;DHT22;3367;48.714;8.994;2022-09-16T05:08:54;12.40;99.90
6662;DHT22;3367;48.714;8.994;2022-09-16T05:11:23;12.50;1.00
6662;DHT22;3367;48.714;8.994;2022-09-16T05:13:50;12.50;1.00
6662;DHT22;3367;48.714;8.994;2022-09-16T05:16:18;12.50;1.00
6662;DHT22;3367;48.714;8.994;2022-09-16T05:18:48;12.50;93.20
6662;DHT22;3367;48.714;8.994;2022-09-16T05:21:18;12.50;99.90
6662;DHT22;3367;48.714;8.994;2022-09-16T05:23:46;12.60;99.90
6662;DHT22;3367;48.714;8.994;2022-09-16T05:26:15;12.50;1.00
6662;DHT22;3367;48.714;8.994;2022-09-16T05:28:41;12.60;1.00
6662;DHT22;3367;48.714;8.994;2022-09-16T05:31:09;12.60;1.00
6662;DHT22;3367;48.714;8.994;2022-09-16T05:33:37;12.60;1.00
6662;DHT22;3367;48.714;8.994;2022-09-16T05:36:09;12.50;99.90
6662;DHT22;3367;48.714;8.994;2022-09-16T05:38:36;12.50;99.90
6662;DHT22;3367;48.714;8.994;2022-09-16T05:41:05;12.50;99.90
6662;DHT22;3367;48.714;8.994;2022-09-16T05:43:32;12.50;96.40
6662;DHT22;3367;48.714;8.994;2022-09-16T05:45:59;12.50;1.00
6662;DHT22;3367;48.714;8.994;2022-09-16T05:48:27;12.50;80.70
6662;DHT22;3367;48.714;8.994;2022-09-16T05:50:55;12.20;99.90
6662;DHT22;3367;48.714;8.994;2022-09-16T05:53:25;12.20;1.00
6662;DHT22;3367;48.714;8.994;2022-09-16T05:55:55;12.20;99.90
6662;DHT22;3367;48.714;8.994;2022-09-16T05:58:22;12.20;1.00
6662;DHT22;3367;48.714;8.994;2022-09-16T06:00:49;12.10;1.00
6662;DHT22;3367;48.714;8.994;2022-09-16T06:03:16;12.10;1.00
6662;DHT22;3367;48.714;8.994;2022-09-16T06:05:43;12.10;1.00
6662;DHT22;3367;48.714;8.994;2022-09-16T06:08:10;12.10;99.90
6662;DHT22;3367;48.714;8.994;2022-09-16T06:10:38;12.20;1.00
6662;DHT22;3367;48.714;8.994;2022-09-16T06:13:05;12.30;1.00
6662;DHT22;3367;48.714;8.994;2022-09-16T06:15:32;12.20;1.00
6662;DHT22;3367;48.714;8.994;2022-09-16T06:18:00;12.30;99.90
6662;DHT22;3367;48.714;8.994;2022-09-16T06:20:27;12.20;1.00
6662;DHT22;3367;48.714;8.994;2022-09-16T06:22:53;12.10;99.90
6662;DHT22;3367;48.714;8.994;2022-09-16T06:25:20;12.00;1.00
6662;DHT22;3367;48.714;8.994;2022-09-16T06:27:48;12.10;1.00
6662;DHT22;3367;48.714;8.994;2022-09-16T06:30:15;12.20;1.00
6662;DHT22;3367;48.714;8.994;2022-09-16T06:32:41;12.20;1.00
6662;DHT22;3367;48.714;8.994;2022-09-16T06:35:08;12.20;21.90
6662;DHT22;3367;48.714;8.994;2022-09-16T06:37:35;12.10;1.00
6662;DHT22;3367;48.714;8.994;2022-09-16T06:40:01;12.00;1.00
6662;DHT22;3367;48.714;8.994;2022-09-16T06:42:28;12.10;1.00
6662;DHT22;3367;48.714;8.994;2022-09-16T06:44:56;12.10;1.00
6662;DHT22;3367;48.714;8.994;2022-09-16T06:47:23;12.10;1.00
6662;DHT22;3367;48.714;8.994;2022-09-16T06:49:51;12.00;1.00
6662;DHT22;3367;48.714;8.994;2022-09-16T06:52:17;12.00;1.00
6662;DHT22;3367;48.714;8.994;2022-09-16T06:54:44;12.10;99.90
6662;DHT22;3367;48.714;8.994;2022-09-16T06:57:11;12.10;99.90
6662;DHT22;3367;48.714;8.994;2022-09-16T06:59:38;12.00;1.00
6662;DHT22;3367;48.714;8.994;2022-09-16T07:02:08;12.00;1.00
6662;DHT22;3367;48.714;8.994;2022-09-16T07:04:35;11.90;1.00
6662;DHT22;3367;48.714;8.994;2022-09-16T07:07:02;11.80;1.00
6662;DHT22;3367;48.714;8.994;2022-09-16T07:09:29;11.90;1.00
6662;DHT22;3367;48.714;8.994;2022-09-16T07:11:57;11.90;1.00
6662;DHT22;3367;48.714;8.994;2022-09-16T07:14:24;11.90;1.00
6662;DHT22;3367;48.714;8.994;2022-09-16T07:16:51;11.90;58.70
6662;DHT22;3367;48.714;8.994;2022-09-16T07:19:19;11.90;1.00
6662;DHT22;3367;48.714;8.994;2022-09-16T07:21:46;11.90;1.00
6662;DHT22;3367;48.714;8.994;2022-09-16T07:24:13;11.80;1.00
6662;DHT22;3367;48.714;8.994;2022-09-16T07:26:41;11.70;1.00
6662;DHT22;3367;48.714;8.994;2022-09-16T07:29:10;11.70;14.90
6662;DHT22;3367;48.714;8.994;2022-09-16T07:31:37;11.70;53.30
6662;DHT22;3367;48.714;8.994;2022-09-16T07:34:06;11.70;99.90
6662;DHT22;3367;48.714;8.994;2022-09-16T07:36:36;11.80;99.90
6662;DHT22;3367;48.714;8.994;2022-09-16T07:39:03;11.90;99.90
6662;DHT22;3367;48.714;8.994;2022-09-16T07:41:33;11.90;1.00
6662;DHT22;3367;48.714;8.994;2022-09-16T07:44:00;11.90;99.90
6662;DHT22;3367;48.714;8.994;2022-09-16T07:46:29;11.90;1.00
6662;DHT22;3367;48.714;8.994;2022-09-16T07:48:58;11.90;1.00
6662;DHT22;3367;48.714;8.994;2022-09-16T07:51:26;12.00;1.00
6662;DHT22;3367;48.714;8.994;2022-09-16T07:53:56;11.90;1.00
6662;DHT22;3367;48.714;8.994;2022-09-16T07:56:24;11.80;99.90
6662;DHT22;3367;48.714;8.994;2022-09-16T07:58:53;11.80;1.00
6662;DHT22;3367;48.714;8.994;2022-09-16T08:01:20;11.80;99.90
6662;DHT22;3367;48.714;8.994;2022-09-16T08:03:48;11.80;99.90
6662;DHT22;3367;48.714;8.994;2022-09-16T08:06:17;11.70;99.90
6662;DHT22;3367;48.714;8.994;2022-09-16T08:08:44;11.80;99.90
6662;DHT22;3367;48.714;8.994;2022-09-16T08:11:13;11.80;99.90
6662;DHT22;3367;48.714;8.994;2022-09-16T08:13:41;11.90;99.90
6662;DHT22;3367;48.714;8.994;2022-09-16T08:16:11;11.90;99.90
6662;DHT22;3367;48.714;8.994;2022-09-16T08:18:38;12.10;1.00
6662;DHT22;3367;48.714;8.994;2022-09-16T08:21:06;12.30;1.00
6662;DHT22;3367;48.714;8.994;2022-09-16T08:23:33;12.40;1.00
6662;DHT22;3367;48.714;8.994;2022-09-16T08:26:00;12.40;99.90
6662;DHT22;3367;48.714;8.994;2022-09-16T08:28:28;12.50;99.90
6662;DHT22;3367;48.714;8.994;2022-09-16T08:30:57;12.40;1.00
6662;DHT22;3367;48.714;8.994;2022-09-16T08:33:24;12.20;99.90
6662;DHT22;3367;48.714;8.994;2022-09-16T08:35:57;12.40;1.00
6662;DHT22;3367;48.714;8.994;2022-09-16T08:38:24;12.40;1.00
6662;DHT22;3367;48.714;8.994;2022-09-16T08:40:52;12.50;1.00
6662;DHT22;3367;48.714;8.994;2022-09-16T08:43:26;12.70;99.90
6662;DHT22;3367;48.714;8.994;2022-09-16T08:46:03;12.60;1.00
6662;DHT22;3367;48.714;8.994;2022-09-16T08:48:40;12.30;1.00
6662;DHT22;3367;48.714;8.994;2022-09-16T08:51:14;12.30;99.90
6662;DHT22;3367;48.714;8.994;2022-09-16T08:53:46;12.40;1.00
6662;DHT22;3367;48.714;8.994;2022-09-16T08:56:18;12.40;1.00
6662;DHT22;3367;48.714;8.994;2022-09-16T08:58:47;12.50;1.00
6662;DHT22;3367;48.714;8.994;2022-09-16T09:01:20;12.70;1.00
6662;DHT22;3367;48.714;8.994;2022-09-16T09:03:50;12.70;1.00
6662;DHT22;3367;48.714;8.994;2022-09-16T09:06:28;12.90;99.90
6662;DHT22;3367;48.714;8.994;2022-09-16T09:09:05;13.00;99.90
6662;DHT22;3367;48.714;8.994;2022-09-16T09:11:43;13.00;1.00
6662;DHT22;3367;48.714;8.994;2022-09-16T09:14:26;13.00;1.00
6662;DHT22;3367;48.714;8.994;2022-09-16T09:17:03;13.10;99.90
6662;DHT22;3367;48.714;8.994;2022-09-16T09:19:42;13.10;1.00
6662;DHT22;3367;48.714;8.994;2022-09-16T09:22:20;13.10;61.80
6662;DHT22;3367;48.714;8.994;2022-09-16T09:25:01;13.20;50.10
6662;DHT22;3367;48.714;8.994;2022-09-16T09:27:33;13.20;1.00
6662;DHT22;3367;48.714;8.994;2022-09-16T09:30:09;13.30;1.00
6662;DHT22;3367;48.714;8.994;2022-09-16T09:32:51;13.20;99.90
6662;DHT22;3367;48.714;8.994;2022-09-16T09:35:29;13.30;1.00
6662;DHT22;3367;48.714;8.994;2022-09-16T09:38:19;13.30;1.00
6662;DHT22;3367;48.714;8.994;2022-09-16T09:40:51;13.40;1.00
6662;DHT22;3367;48.714;8.994;2022-09-16T09:43:23;13.40;1.00
6662;DHT22;3367;48.714;8.994;2022-09-16T09:45:57;13.40;1.00
6662;DHT22;3367;48.714;8.994;2022-09-16T09:48:31;13.50;99.90
6662;DHT22;3367;48.714;8.994;2022-09-16T09:51:03;13.40;99.90
6662;DHT22;3367;48.714;8.994;2022-09-16T09:53:34;13.40;99.90
6662;DHT22;3367;48.714;8.994;2022-09-16T09:56:17;13.40;23.90
6662;DHT22;3367;48.714;8.994;2022-09-16T09:58:53;13.40;23.50
6662;DHT22;3367;48.714;8.994;2022-09-16T10:01:22;13.40;1.00
6662;DHT22;3367;48.714;8.994;2022-09-16T10:03:52;13.30;1.00
6662;DHT22;3367;48.714;8.994;2022-09-16T10:06:25;13.40;99.90
6662;DHT22;3367;48.714;8.994;2022-09-16T10:08:55;13.50;99.90
6662;DHT22;3367;48.714;8.994;2022-09-16T10:11:25;13.50;99.90
6662;DHT22;3367;48.714;8.994;2022-09-16T10:13:53;13.40;99.90
6662;DHT22;3367;48.714;8.994;2022-09-16T10:16:26;13.40;1.00
6662;DHT22;3367;48.714;8.994;2022-09-16T10:18:59;13.40;99.90
6662;DHT22;3367;48.714;8.994;2022-09-16T10:21:38;13.50;99.90
6662;DHT22;3367;48.714;8.994;2022-09-16T10:24:26;13.60;1.00
6662;DHT22;3367;48.714;8.994;2022-09-16T10:26:53;13.70;1.00
6662;DHT22;3367;48.714;8.994;2022-09-16T10:29:20;13.90;1.00
6662;DHT22;3367;48.714;8.994;2022-09-16T10:31:47;13.80;99.90
6662;DHT22;3367;48.714;8.994;2022-09-16T10:34:20;13.80;99.90
6662;DHT22;3367;48.714;8.994;2022-09-16T10:36:59;13.70;99.90
6662;DHT22;3367;48.714;8.994;2022-09-16T10:39:28;13.80;1.00
6662;DHT22;3367;48.714;8.994;2022-09-16T10:41:55;13.80;1.00
6662;DHT22;3367;48.714;8.994;2022-09-16T10:44:26;13.80;99.90
6662;DHT22;3367;48.714;8.994;2022-09-16T10:46:56;13.80;1.00
6662;DHT22;3367;48.714;8.994;2022-09-16T10:49:32;13.90;1.00
6662;DHT22;3367;48.714;8.994;2022-09-16T10:52:08;13.80;1.00
6662;DHT22;3367;48.714;8.994;2022-09-16T10:54:38;13.80;1.00
6662;DHT22;3367;48.714;8.994;2022-09-16T10:57:22;13.80;1.00
6662;DHT22;3367;48.714;8.994;2022-09-16T11:00:03;13.80;99.90
6662;DHT22;3367;48.714;8.994;2022-09-16T11:03:03;13.80;1.00
6662;DHT22;3367;48.714;8.994;2022-09-16T11:05:37;13.80;1.00
6662;DHT22;3367;48.714;8.994;2022-09-16T11:08:14;13.90;1.00
6662;DHT22;3367;48.714;8.994;2022-09-16T11:10:46;13.90;1.00
6662;DHT22;3367;48.714;8.994;2022-09-16T11:13:24;13.90;1.00
6662;DHT22;3367;48.714;8.994;2022-09-16T11:16:08;13.90;99.90
6662;DHT22;3367;48.714;8.994;2022-09-16T11:18:48;13.80;99.90
6662;DHT22;3367;48.714;8.994;2022-09-16T11:21:39;13.80;99.90
6662;DHT22;3367;48.714;8.994;2022-09-16T11:24:20;13.80;99.90
6662;DHT22;3367;48.714;8.994;2022-09-16T11:26:56;13.70;99.90
6662;DHT22;3367;48.714;8.994;2022-09-16T11:29:47;13.70;99.90
6662;DHT22;3367;48.714;8.994;2022-09-16T11:32:24;13.60;1.00
6662;DHT22;3367;48.714;8.994;2022-09-16T11:35:07;13.60;1.00
6662;DHT22;3367;48.714;8.994;2022-09-16T11:37:50;13.70;1.00
6662;DHT22;3367;48.714;8.994;2022-09-16T11:40:26;13.70;99.90
6662;DHT22;3367;48.714;8.994;2022-09-16T11:42:59;13.80;1.00
6662;DHT22;3367;48.714;8.994;2022-09-16T11:45:40;13.80;1.00
6662;DHT22;3367;48.714;8.994;2022-09-16T11:51:13;13.90;1.00
6662;DHT22;3367;48.714;8.994;2022-09-16T11:54:02;14.10;1.00
6662;DHT22;3367;48.714;8.994;2022-09-16T11:56:36;14.30;99.90
6662;DHT22;3367;48.714;8.994;2022-09-16T11:59:12;14.40;99.90
6662;DHT22;3367;48.714;8.994;2022-09-16T12:01:43;14.50;99.90
6662;DHT22;3367;48.714;8.994;2022-09-16T12:04:16;14.60;99.90
6662;DHT22;3367;48.714;8.994;2022-09-16T12:06:51;14.50;99.90
6662;DHT22;3367;48.714;8.994;2022-09-16T12:09:26;14.50;99.90
6662;DHT22;3367;48.714;8.994;2022-09-16T12:12:01;14.50;1.00
6662;DHT22;3367;48.714;8.994;2022-09-16T12:14:34;14.40;1.00
6662;DHT22;3367;48.714;8.994;2022-09-16T12:17:06;14.40;1.00
6662;DHT22;3367;48.714;8.994;2022-09-16T12:19:41;14.50;1.00
6662;DHT22;3367;48.714;8.994;2022-09-16T12:22:14;14.60;1.00
6662;DHT22;3367;48.714;8.994;2022-09-16T12:24:50;14.60;1.00
6662;DHT22;3367;48.714;8.994;2022-09-16T12:27:33;14.60;1.00
6662;DHT22;3367;48.714;8.994;2022-09-16T12:30:07;14.70;1.00
6662;DHT22;3367;48.714;8.994;2022-09-16T12:32:45;14.70;33.00
6662;DHT22;3367;48.714;8.994;2022-09-16T12:35:15;14.70;1.00
6662;DHT22;3367;48.714;8.994;2022-09-16T12:37:46;14.60;6.60
6662;DHT22;3367;48.714;8.994;2022-09-16T12:40:17;14.60;99.90
6662;DHT22;3367;48.714;8.994;2022-09-16T12:46:09;14.50;1.00
6662;DHT22;3367;48.714;8.994;2022-09-16T12:49:04;14.50;1.00
6662;DHT22;3367;48.714;8.994;2022-09-16T12:51:58;14.50;1.00
6662;DHT22;3367;48.714;8.994;2022-09-16T12:54:50;14.60;1.00
6662;DHT22;3367;48.714;8.994;2022-09-16T12:57:34;14.60;99.90
6662;DHT22;3367;48.714;8.994;2022-09-16T13:00:13;14.70;99.90
6662;DHT22;3367;48.714;8.994;2022-09-16T13:02:45;14.80;1.00
6662;DHT22;3367;48.714;8.994;2022-09-16T13:05:19;14.90;92.20
6662;DHT22;3367;48.714;8.994;2022-09-16T13:07:49;15.10;99.90
6662;DHT22;3367;48.714;8.994;2022-09-16T13:10:18;15.20;1.00
6662;DHT22;3367;48.714;8.994;2022-09-16T13:12:53;15.30;1.00
6662;DHT22;3367;48.714;8.994;2022-09-16T13:15:26;15.50;1.00
6662;DHT22;3367;48.714;8.994;2022-09-16T13:18:05;15.60;1.00
6662;DHT22;3367;48.714;8.994;2022-09-16T13:20:35;15.60;1.00
6662;DHT22;3367;48.714;8.994;2022-09-16T13:23:07;15.70;1.00
6662;DHT22;3367;48.714;8.994;2022-09-16T13:25:45;15.80;1.00
6662;DHT22;3367;48.714;8.994;2022-09-16T13:28:25;15.80;1.00
6662;DHT22;3367;48.714;8.994;2022-09-16T13:31:15;15.70;99.90
6662;DHT22;3367;48.714;8.994;2022-09-16T13:33:44;15.60;99.90
6662;DHT22;3367;48.714;8.994;2022-09-16T13:36:27;15.50;1.00
6662;DHT22;3367;48.714;8.994;2022-09-16T13:38:56;15.50;1.00
6662;DHT22;3367;48.714;8.994;2022-09-16T13:41:32;15.40;1.00
6662;DHT22;3367;48.714;8.994;2022-09-16T13:44:02;15.40;1.00
6662;DHT22;3367;48.714;8.994;2022-09-16T13:46:32;15.40;1.00
6662;DHT22;3367;48.714;8.994;2022-09-16T13:49:15;15.40;1.00
6662;DHT22;3367;48.714;8.994;2022-09-16T13:51:46;15.40;1.00
6662;DHT22;3367;48.714;8.994;2022-09-16T13:54:20;15.40;1.00
6662;DHT22;3367;48.714;8.994;2022-09-16T13:56:55;15.30;1.00
6662;DHT22;3367;48.714;8.994;2022-09-16T13:59:38;15.40;1.00
6662;DHT22;3367;48.714;8.994;2022-09-16T14:02:14;15.40;1.00
6662;DHT22;3367;48.714;8.994;2022-09-16T14:05:04;15.40;1.00
6662;DHT22;3367;48.714;8.994;2022-09-16T14:07:43;15.50;1.00
6662;DHT22;3367;48.714;8.994;2022-09-16T14:10:16;15.40;1.00
6662;DHT22;3367;48.714;8.994;2022-09-16T14:12:50;15.40;1.00
6662;DHT22;3367;48.714;8.994;2022-09-16T14:15:22;15.40;1.00
6662;DHT22;3367;48.714;8.994;2022-09-16T14:17:54;15.50;1.00
6662;DHT22;3367;48.714;8.994;2022-09-16T14:20:23;15.50;1.00
6662;DHT22;3367;48.714;8.994;2022-09-16T14:22:59;15.60;1.00
6662;DHT22;3367;48.714;8.994;2022-09-16T14:25:29;15.70;1.00
6662;DHT22;3367;48.714;8.994;2022-09-16T14:28:07;15.70;1.00
6662;DHT22;3367;48.714;8.994;2022-09-16T14:30:36;15.60;1.00
6662;DHT22;3367;48.714;8.994;2022-09-16T14:33:05;15.60;1.00
6662;DHT22;3367;48.714;8.994;2022-09-16T14:35:32;15.50;1.00
6662;DHT22;3367;48.714;8.994;2022-09-16T14:38:02;15.50;1.00
6662;DHT22;3367;48.714;8.994;2022-09-16T14:40:30;15.40;1.00
6662;DHT22;3367;48.714;8.994;2022-09-16T14:43:06;15.40;1.00
6662;DHT22;3367;48.714;8.994;2022-09-16T14:45:36;15.40;1.00
6662;DHT22;3367;48.714;8.994;2022-09-16T14:48:06;15.40;1.00
6662;DHT22;3367;48.714;8.994;2022-09-16T14:50:37;15.50;1.00
6662;DHT22;3367;48.714;8.994;2022-09-16T14:53:06;15.60;1.00
6662;DHT22;3367;48.714;8.994;2022-09-16T14:55:34;15.60;1.00
6662;DHT22;3367;48.714;8.994;2022-09-16T14:58:04;15.70;1.00
6662;DHT22;3367;48.714;8.994;2022-09-16T15:00:38;15.70;1.00
6662;DHT22;3367;48.714;8.994;2022-09-16T15:03:12;15.80;1.00
6662;DHT22;3367;48.714;8.994;2022-09-16T15:05:41;15.90;1.00
6662;DHT22;3367;48.714;8.994;2022-09-16T15:08:14;15.90;1.00
6662;DHT22;3367;48.714;8.994;2022-09-16T15:10:45;16.00;1.00
6662;DHT22;3367;48.714;8.994;2022-09-16T15:13:14;16.00;1.00
6662;DHT22;3367;48.714;8.994;2022-09-16T15:15:47;15.90;1.00
6662;DHT22;3367;48.714;8.994;2022-09-16T15:18:21;15.90;1.00
6662;DHT22;3367;48.714;8.994;2022-09-16T15:20:52;15.90;1.00
6662;DHT22;3367;48.714;8.994;2022-09-16T15:23:23;15.80;1.00
6662;DHT22;3367;48.714;8.994;2022-09-16T15:25:52;15.80;1.00
6662;DHT22;3367;48.714;8.994;2022-09-16T15:28:21;15.80;1.00
6662;DHT22;3367;48.714;8.994;2022-09-16T15:30:51;15.60;1.00
6662;DHT22;3367;48.714;8.994;2022-09-16T15:33:25;15.60;1.00
6662;DHT22;3367;48.714;8.994;2022-09-16T15:35:52;15.50;1.00
6662;DHT22;3367;48.714;8.994;2022-09-16T15:38:20;15.50;1.00
6662;DHT22;3367;48.714;8.994;2022-09-16T15:40:58;15.60;1.00
6662;DHT22;3367;48.714;8.994;2022-09-16T15:43:27;15.50;1.00
6662;DHT22;3367;48.714;8.994;2022-09-16T15:46:00;15.40;1.00
6662;DHT22;3367;48.714;8.994;2022-09-16T15:48:31;15.40;1.00
6662;DHT22;3367;48.714;8.994;2022-09-16T15:51:01;15.40;1.00
6662;DHT22;3367;48.714;8.994;2022-09-16T15:53:36;15.30;1.00
6662;DHT22;3367;48.714;8.994;2022-09-16T15:56:06;15.40;1.00
6662;DHT22;3367;48.714;8.994;2022-09-16T15:58:38;15.40;1.00
6662;DHT22;3367;48.714;8.994;2022-09-16T16:01:10;15.30;1.00
6662;DHT22;3367;48.714;8.994;2022-09-16T16:03:53;15.20;1.00
6662;DHT22;3367;48.714;8.994;2022-09-16T16:06:43;15.10;1.00
6662;DHT22;3367;48.714;8.994;2022-09-16T16:09:38;15.00;1.00
6662;DHT22;3367;48.714;8.994;2022-09-16T16:12:08;15.00;1.00
6662;DHT22;3367;48.714;8.994;2022-09-16T16:14:36;14.90;1.00
6662;DHT22;3367;48.714;8.994;2022-09-16T16:17:06;14.90;1.00
6662;DHT22;3367;48.714;8.994;2022-09-16T16:19:33;15.00;1.00
6662;DHT22;3367;48.714;8.994;2022-09-16T16:22:01;14.90;1.00
6662;DHT22;3367;48.714;8.994;2022-09-16T16:24:28;14.80;1.00
6662;DHT22;3367;48.714;8.994;2022-09-16T16:26:55;14.80;1.00
6662;DHT22;3367;48.714;8.994;2022-09-16T16:29:22;14.90;1.00
6662;DHT22;3367;48.714;8.994;2022-09-16T16:32:05;14.70;1.00
6662;DHT22;3367;48.714;8.994;2022-09-16T16:34:33;14.70;1.00
6662;DHT22;3367;48.714;8.994;2022-09-16T16:37:01;14.60;1.00
6662;DHT22;3367;48.714;8.994;2022-09-16T16:39:28;14.50;1.00
6662;DHT22;3367;48.714;8.994;2022-09-16T16:41:55;14.50;1.00
6662;DHT22;3367;48.714;8.994;2022-09-16T16:44:23;14.60;1.00
6662;DHT22;3367;48.714;8.994;2022-09-16T16:46:50;14.40;1.00
6662;DHT22;3367;48.714;8.994;2022-09-16T16:49:19;14.30;1.00
6662;DHT22;3367;48.714;8.994;2022-09-16T16:51:47;14.20;1.00
6662;DHT22;3367;48.714;8.994;2022-09-16T16:54:16;14.10;1.00
6662;DHT22;3367;48.714;8.994;2022-09-16T16:56:43;14.00;1.00
6662;DHT22;3367;48.714;8.994;2022-09-16T16:59:10;14.00;1.00
6662;DHT22;3367;48.714;8.994;2022-09-16T17:01:38;13.90;1.00